sensor_id;sensor_type;location;lat;lon;timestamp;pressure;altitude;pressure_sealevel;temperature;humidity
35806;BME280;21925;44.608;11.580;2024-01-07T00:00:42;99875.13;;;9.93;100.00
35806;BME280;21925;44.608;11.580;2024-01-07T00:03:08;99848.03;;;9.88;100.00
35806;BME280;21925;44.608;11.580;2024-01-07T00:05:35;99898.59;;;10.13;100.00
35806;BME280;21925;44.608;11.580;2024-01-07T00:08:02;99865.09;;;9.81;100.00
35806;BME280;21925;44.608;11.580;2024-01-07T00:10:28;99830.34;;;9.63;100.00
35806;BME280;21925;44.608;11.580;2024-01-07T00:12:54;99819.78;;;9.61;100.00
35806;BME280;21925;44.608;11.580;2024-01-07T00:15:20;99874.13;;;9.82;100.00
35806;BME280;21925;44.608;11.580;2024-01-07T00:17:45;99840.47;;;9.59;100.00
35806;BME280;21925;44.608;11.580;2024-01-07T00:20:11;99849.09;;;9.61;100.00
35806;BME280;21925;44.608;11.580;2024-01-07T00:22:37;99879.31;;;9.87;100.00
35806;BME280;21925;44.608;11.580;2024-01-07T00:25:05;99888.88;;;9.96;100.00
35806;BME280;21925;44.608;11.580;2024-01-07T00:27:31;99887.59;;;10.09;100.00
35806;BME280;21925;44.608;11.580;2024-01-07T00:29:57;99885.50;;;10.03;100.00
35806;BME280;21925;44.608;11.580;2024-01-07T00:32:22;99874.91;;;9.82;100.00
35806;BME280;21925;44.608;11.580;2024-01-07T00:34:48;99859.38;;;9.67;100.00
35806;BME280;21925;44.608;11.580;2024-01-07T00:37:14;99884.06;;;9.90;100.00
35806;BME280;21925;44.608;11.580;2024-01-07T00:39:40;99897.31;;;9.88;100.00
35806;BME280;21925;44.608;11.580;2024-01-07T00:42:07;99882.34;;;9.82;100.00
35806;BME280;21925;44.608;11.580;2024-01-07T00:44:33;99890.25;;;9.87;100.00
35806;BME280;21925;44.608;11.580;2024-01-07T00:47:00;99892.50;;;9.81;100.00
35806;BME280;21925;44.608;11.580;2024-01-07T00:49:26;99887.00;;;9.81;100.00
35806;BME280;21925;44.608;11.580;2024-01-07T00:51:53;99870.31;;;9.67;100.00
35806;BME280;21925;44.608;11.580;2024-01-07T00:54:19;99896.59;;;9.91;100.00
35806;BME280;21925;44.608;11.580;2024-01-07T00:56:45;99892.59;;;9.85;100.00
35806;BME280;21925;44.608;11.580;2024-01-07T00:59:11;99889.53;;;9.90;100.00
35806;BME280;21925;44.608;11.580;2024-01-07T01:01:37;99899.03;;;9.96;100.00
35806;BME280;21925;44.608;11.580;2024-01-07T01:04:04;99880.63;;;9.74;100.00
35806;BME280;21925;44.608;11.580;2024-01-07T01:06:31;99907.78;;;10.01;100.00
35806;BME280;21925;44.608;11.580;2024-01-07T01:08:57;99888.59;;;9.82;100.00
35806;BME280;21925;44.608;11.580;2024-01-07T01:11:23;99875.88;;;9.71;100.00
35806;BME280;21925;44.608;11.580;2024-01-07T01:13:49;99911.56;;;9.97;100.00
35806;BME280;21925;44.608;11.580;2024-01-07T01:16:16;99917.03;;;9.97;100.00
35806;BME280;21925;44.608;11.580;2024-01-07T01:18:42;99908.41;;;9.95;100.00
35806;BME280;21925;44.608;11.580;2024-01-07T01:21:09;99899.22;;;9.84;100.00
35806;BME280;21925;44.608;11.580;2024-01-07T01:23:35;99909.97;;;9.96;100.00
35806;BME280;21925;44.608;11.580;2024-01-07T01:26:02;99906.28;;;9.85;100.00
35806;BME280;21925;44.608;11.580;2024-01-07T01:28:28;99916.84;;;9.86;100.00
35806;BME280;21925;44.608;11.580;2024-01-07T01:30:53;99912.09;;;9.83;100.00
35806;BME280;21925;44.608;11.580;2024-01-07T01:33:19;99912.47;;;9.82;100.00
35806;BME280;21925;44.608;11.580;2024-01-07T01:35:45;99908.25;;;9.88;100.00
35806;BME280;21925;44.608;11.580;2024-01-07T01:38:11;99910.66;;;9.89;100.00
35806;BME280;21925;44.608;11.580;2024-01-07T01:40:36;99907.41;;;9.84;100.00
35806;BME280;21925;44.608;11.580;2024-01-07T01:43:02;99901.56;;;9.85;100.00
35806;BME280;21925;44.608;11.580;2024-01-07T01:45:29;99918.06;;;9.89;100.00
35806;BME280;21925;44.608;11.580;2024-01-07T01:47:55;99891.88;;;9.69;100.00
35806;BME280;21925;44.608;11.580;2024-01-07T01:50:21;99925.56;;;9.92;100.00
35806;BME280;21925;44.608;11.580;2024-01-07T01:52:48;99916.84;;;9.86;100.00
35806;BME280;21925;44.608;11.580;2024-01-07T01:55:15;99918.00;;;9.85;100.00
35806;BME280;21925;44.608;11.580;2024-01-07T01:57:41;99900.94;;;9.73;100.00
35806;BME280;21925;44.608;11.580;2024-01-07T02:00:08;99909.16;;;9.73;100.00
35806;BME280;21925;44.608;11.580;2024-01-07T02:02:34;99917.34;;;9.73;100.00
35806;BME280;21925;44.608;11.580;2024-01-07T02:05:03;99934.34;;;9.82;100.00
35806;BME280;21925;44.608;11.580;2024-01-07T02:07:30;99911.75;;;9.66;100.00
35806;BME280;21925;44.608;11.580;2024-01-07T02:09:56;99900.44;;;9.67;100.00
35806;BME280;21925;44.608;11.580;2024-01-07T02:12:22;99916.66;;;9.76;100.00
35806;BME280;21925;44.608;11.580;2024-01-07T02:14:48;99923.59;;;9.73;100.00
35806;BME280;21925;44.608;11.580;2024-01-07T02:17:15;99928.56;;;9.87;100.00
35806;BME280;21925;44.608;11.580;2024-01-07T02:19:42;99895.75;;;9.49;100.00
35806;BME280;21925;44.608;11.580;2024-01-07T02:22:07;99912.31;;;9.56;100.00
35806;BME280;21925;44.608;11.580;2024-01-07T02:24:33;99941.47;;;9.67;100.00
35806;BME280;21925;44.608;11.580;2024-01-07T02:26:58;99936.81;;;9.68;100.00
35806;BME280;21925;44.608;11.580;2024-01-07T02:29:30;99931.03;;;9.54;100.00
35806;BME280;21925;44.608;11.580;2024-01-07T02:31:56;99916.44;;;9.47;100.00
35806;BME280;21925;44.608;11.580;2024-01-07T02:34:22;99929.28;;;9.46;100.00
35806;BME280;21925;44.608;11.580;2024-01-07T02:36:47;99939.25;;;9.54;100.00
35806;BME280;21925;44.608;11.580;2024-01-07T02:39:14;99937.00;;;9.59;100.00
35806;BME280;21925;44.608;11.580;2024-01-07T02:41:41;99920.00;;;9.50;100.00
35806;BME280;21925;44.608;11.580;2024-01-07T02:44:08;99935.78;;;9.57;100.00
35806;BME280;21925;44.608;11.580;2024-01-07T02:46:34;99934.22;;;9.56;100.00
35806;BME280;21925;44.608;11.580;2024-01-07T02:49:01;99939.31;;;9.57;100.00
35806;BME280;21925;44.608;11.580;2024-01-07T02:51:28;99935.88;;;9.60;100.00
35806;BME280;21925;44.608;11.580;2024-01-07T02:53:54;99937.16;;;9.66;100.00
35806;BME280;21925;44.608;11.580;2024-01-07T02:56:20;99921.97;;;9.69;100.00
35806;BME280;21925;44.608;11.580;2024-01-07T02:58:45;99915.69;;;9.68;100.00
35806;BME280;21925;44.608;11.580;2024-01-07T03:01:11;99914.69;;;9.57;100.00
35806;BME280;21925;44.608;11.580;2024-01-07T03:03:37;99921.03;;;9.61;100.00
35806;BME280;21925;44.608;11.580;2024-01-07T03:06:03;99924.22;;;9.63;100.00
35806;BME280;21925;44.608;11.580;2024-01-07T03:08:29;99925.88;;;9.68;100.00
35806;BME280;21925;44.608;11.580;2024-01-07T03:10:55;99939.25;;;9.54;100.00
35806;BME280;21925;44.608;11.580;2024-01-07T03:13:21;99915.03;;;9.37;100.00
35806;BME280;21925;44.608;11.580;2024-01-07T03:15:47;99922.25;;;9.45;100.00
35806;BME280;21925;44.608;11.580;2024-01-07T03:18:15;99927.56;;;9.38;100.00
35806;BME280;21925;44.608;11.580;2024-01-07T03:20:59;99941.97;;;9.54;100.00
35806;BME280;21925;44.608;11.580;2024-01-07T03:23:31;99930.81;;;9.44;100.00
35806;BME280;21925;44.608;11.580;2024-01-07T03:26:03;99919.34;;;9.19;100.00
35806;BME280;21925;44.608;11.580;2024-01-07T03:28:29;99941.97;;;9.35;100.00
35806;BME280;21925;44.608;11.580;2024-01-07T03:30:57;99938.56;;;9.23;100.00
35806;BME280;21925;44.608;11.580;2024-01-07T03:33:23;99941.75;;;9.44;100.00
35806;BME280;21925;44.608;11.580;2024-01-07T03:35:49;99938.81;;;9.33;100.00
35806;BME280;21925;44.608;11.580;2024-01-07T03:38:15;99949.16;;;9.24;100.00
35806;BME280;21925;44.608;11.580;2024-01-07T03:40:41;99954.53;;;9.21;100.00
35806;BME280;21925;44.608;11.580;2024-01-07T03:43:08;99947.28;;;9.28;100.00
35806;BME280;21925;44.608;11.580;2024-01-07T03:45:34;99955.50;;;9.28;100.00
35806;BME280;21925;44.608;11.580;2024-01-07T03:48:01;99928.19;;;8.97;100.00
35806;BME280;21925;44.608;11.580;2024-01-07T03:50:27;99942.63;;;9.13;100.00
35806;BME280;21925;44.608;11.580;2024-01-07T03:52:52;99975.78;;;9.27;100.00
35806;BME280;21925;44.608;11.580;2024-01-07T03:55:18;99967.16;;;9.25;100.00
35806;BME280;21925;44.608;11.580;2024-01-07T03:57:44;99958.34;;;9.16;100.00
35806;BME280;21925;44.608;11.580;2024-01-07T04:00:11;99956.91;;;9.22;100.00
35806;BME280;21925;44.608;11.580;2024-01-07T04:02:38;99962.81;;;9.24;100.00
35806;BME280;21925;44.608;11.580;2024-01-07T04:05:04;99938.53;;;9.04;100.00
35806;BME280;21925;44.608;11.580;2024-01-07T04:07:30;99945.94;;;9.03;100.00
35806;BME280;21925;44.608;11.580;2024-01-07T04:09:56;99955.91;;;9.11;100.00
35806;BME280;21925;44.608;11.580;2024-01-07T04:12:22;99963.81;;;9.16;100.00
35806;BME280;21925;44.608;11.580;2024-01-07T04:14:48;99963.66;;;9.09;100.00
35806;BME280;21925;44.608;11.580;2024-01-07T04:17:15;99963.81;;;9.16;100.00
35806;BME280;21925;44.608;11.580;2024-01-07T04:19:40;99976.50;;;9.24;100.00
35806;BME280;21925;44.608;11.580;2024-01-07T04:22:06;99962.81;;;9.24;100.00
35806;BME280;21925;44.608;11.580;2024-01-07T04:24:36;99966.44;;;9.28;100.00
35806;BME280;21925;44.608;11.580;2024-01-07T04:27:02;99951.28;;;9.15;100.00
35806;BME280;21925;44.608;11.580;2024-01-07T04:29:28;99969.59;;;9.30;100.00
35806;BME280;21925;44.608;11.580;2024-01-07T04:31:56;99963.81;;;9.16;100.00
35806;BME280;21925;44.608;11.580;2024-01-07T04:34:22;99950.13;;;9.16;100.00
35806;BME280;21925;44.608;11.580;2024-01-07T04:36:48;99973.59;;;9.17;100.00
35806;BME280;21925;44.608;11.580;2024-01-07T04:39:13;99974.47;;;9.21;100.00
35806;BME280;21925;44.608;11.580;2024-01-07T04:41:39;99968.50;;;9.16;100.00
35806;BME280;21925;44.608;11.580;2024-01-07T04:44:06;99953.63;;;8.98;100.00
35806;BME280;21925;44.608;11.580;2024-01-07T04:46:38;99984.81;;;9.12;100.00
35806;BME280;21925;44.608;11.580;2024-01-07T04:49:05;99977.94;;;9.18;100.00
35806;BME280;21925;44.608;11.580;2024-01-07T04:51:34;99972.91;;;9.05;100.00
35806;BME280;21925;44.608;11.580;2024-01-07T04:53:59;99995.03;;;9.15;100.00
35806;BME280;21925;44.608;11.580;2024-01-07T04:56:25;99981.19;;;9.08;100.00
35806;BME280;21925;44.608;11.580;2024-01-07T04:58:51;99991.44;;;9.11;100.00
35806;BME280;21925;44.608;11.580;2024-01-07T05:01:16;99996.63;;;9.16;100.00
35806;BME280;21925;44.608;11.580;2024-01-07T05:03:42;99985.25;;;9.14;100.00
35806;BME280;21925;44.608;11.580;2024-01-07T05:06:11;100003.69;;;9.17;100.00
35806;BME280;21925;44.608;11.580;2024-01-07T05:08:39;99979.72;;;8.95;100.00
35806;BME280;21925;44.608;11.580;2024-01-07T05:11:06;99996.53;;;9.13;100.00
35806;BME280;21925;44.608;11.580;2024-01-07T05:13:31;99984.31;;;9.07;100.00
35806;BME280;21925;44.608;11.580;2024-01-07T05:15:57;99998.50;;;9.12;100.00
35806;BME280;21925;44.608;11.580;2024-01-07T05:18:24;100007.13;;;9.14;100.00
35806;BME280;21925;44.608;11.580;2024-01-07T05:20:50;99985.38;;;9.02;100.00
35806;BME280;21925;44.608;11.580;2024-01-07T05:23:16;99980.88;;;8.94;100.00
35806;BME280;21925;44.608;11.580;2024-01-07T05:25:43;99973.13;;;8.96;100.00
35806;BME280;21925;44.608;11.580;2024-01-07T05:28:13;99992.59;;;9.10;100.00
35806;BME280;21925;44.608;11.580;2024-01-07T05:30:41;99998.13;;;9.14;100.00
35806;BME280;21925;44.608;11.580;2024-01-07T05:33:07;99986.13;;;9.03;100.00
35806;BME280;21925;44.608;11.580;2024-01-07T05:35:33;100008.47;;;9.05;100.00
35806;BME280;21925;44.608;11.580;2024-01-07T05:37:59;100020.00;;;9.14;100.00
35806;BME280;21925;44.608;11.580;2024-01-07T05:40:26;100009.00;;;9.10;100.00
35806;BME280;21925;44.608;11.580;2024-01-07T05:42:52;100007.31;;;9.06;100.00
35806;BME280;21925;44.608;11.580;2024-01-07T05:45:19;100012.41;;;9.07;100.00
35806;BME280;21925;44.608;11.580;2024-01-07T05:47:45;100004.06;;;9.00;100.00
35806;BME280;21925;44.608;11.580;2024-01-07T05:50:12;100019.41;;;9.20;100.00
35806;BME280;21925;44.608;11.580;2024-01-07T05:52:42;99993.28;;;9.07;100.00
35806;BME280;21925;44.608;11.580;2024-01-07T05:55:08;100006.06;;;9.19;100.00
35806;BME280;21925;44.608;11.580;2024-01-07T05:57:34;100013.03;;;9.16;100.00
35806;BME280;21925;44.608;11.580;2024-01-07T06:00:01;100005.88;;;9.12;100.00
35806;BME280;21925;44.608;11.580;2024-01-07T06:02:26;100013.56;;;9.06;100.00
35806;BME280;21925;44.608;11.580;2024-01-07T06:04:52;100002.63;;;9.06;100.00
35806;BME280;21925;44.608;11.580;2024-01-07T06:07:17;100024.50;;;9.06;100.00
35806;BME280;21925;44.608;11.580;2024-01-07T06:09:43;100019.03;;;9.06;100.00
35806;BME280;21925;44.608;11.580;2024-01-07T06:12:09;100026.19;;;9.11;100.00
35806;BME280;21925;44.608;11.580;2024-01-07T06:14:34;100019.16;;;8.94;100.00
35806;BME280;21925;44.608;11.580;2024-01-07T06:17:00;100006.00;;;8.84;100.00
35806;BME280;21925;44.608;11.580;2024-01-07T06:19:26;100038.91;;;9.03;100.00
35806;BME280;21925;44.608;11.580;2024-01-07T06:21:52;100034.91;;;9.16;100.00
35806;BME280;21925;44.608;11.580;2024-01-07T06:24:18;100020.81;;;8.99;100.00
35806;BME280;21925;44.608;11.580;2024-01-07T06:26:44;100023.19;;;9.00;100.00
35806;BME280;21925;44.608;11.580;2024-01-07T06:29:09;99992.59;;;8.64;100.00
35806;BME280;21925;44.608;11.580;2024-01-07T06:31:35;100037.47;;;8.94;100.00
35806;BME280;21925;44.608;11.580;2024-01-07T06:34:01;100038.09;;;8.87;100.00
35806;BME280;21925;44.608;11.580;2024-01-07T06:36:26;100048.16;;;8.83;100.00
35806;BME280;21925;44.608;11.580;2024-01-07T06:38:56;99964.34;;;8.29;100.00
35806;BME280;21925;44.608;11.580;2024-01-07T06:41:24;99960.66;;;8.22;100.00
35806;BME280;21925;44.608;11.580;2024-01-07T06:43:52;100020.38;;;8.66;100.00
35806;BME280;21925;44.608;11.580;2024-01-07T06:46:23;100020.63;;;8.61;100.00
35806;BME280;21925;44.608;11.580;2024-01-07T06:48:52;100067.53;;;8.78;100.00
35806;BME280;21925;44.608;11.580;2024-01-07T06:51:28;99982.25;;;8.27;100.00
35806;BME280;21925;44.608;11.580;2024-01-07T06:53:55;100076.28;;;8.84;100.00
35806;BME280;21925;44.608;11.580;2024-01-07T06:56:21;99967.19;;;8.17;100.00
35806;BME280;21925;44.608;11.580;2024-01-07T06:58:50;100009.31;;;8.32;100.00
35806;BME280;21925;44.608;11.580;2024-01-07T07:01:19;100077.34;;;8.79;100.00
35806;BME280;21925;44.608;11.580;2024-01-07T07:03:46;100038.13;;;8.45;100.00
35806;BME280;21925;44.608;11.580;2024-01-07T07:06:12;100054.34;;;8.53;100.00
35806;BME280;21925;44.608;11.580;2024-01-07T07:08:38;100014.31;;;8.30;100.00
35806;BME280;21925;44.608;11.580;2024-01-07T07:11:04;100043.59;;;8.45;100.00
35806;BME280;21925;44.608;11.580;2024-01-07T07:13:30;100052.25;;;8.47;100.00
35806;BME280;21925;44.608;11.580;2024-01-07T07:15:55;100013.88;;;8.28;100.00
35806;BME280;21925;44.608;11.580;2024-01-07T07:18:21;100095.56;;;8.75;100.00
35806;BME280;21925;44.608;11.580;2024-01-07T07:20:47;100091.00;;;8.79;100.00
35806;BME280;21925;44.608;11.580;2024-01-07T07:23:12;100052.88;;;8.56;100.00
35806;BME280;21925;44.608;11.580;2024-01-07T07:25:43;100047.84;;;8.42;100.00
35806;BME280;21925;44.608;11.580;2024-01-07T07:28:10;100041.13;;;8.40;100.00
35806;BME280;21925;44.608;11.580;2024-01-07T07:30:35;100084.75;;;8.52;100.00
35806;BME280;21925;44.608;11.580;2024-01-07T07:33:02;100028.06;;;8.33;100.00
35806;BME280;21925;44.608;11.580;2024-01-07T07:35:28;100101.34;;;8.59;100.00
35806;BME280;21925;44.608;11.580;2024-01-07T07:37:54;100117.88;;;8.77;100.00
35806;BME280;21925;44.608;11.580;2024-01-07T07:40:20;100091.50;;;8.70;100.00
35806;BME280;21925;44.608;11.580;2024-01-07T07:42:46;100109.41;;;8.67;100.00
35806;BME280;21925;44.608;11.580;2024-01-07T07:45:12;100107.91;;;8.70;100.00
35806;BME280;21925;44.608;11.580;2024-01-07T07:47:42;100109.31;;;8.64;100.00
35806;BME280;21925;44.608;11.580;2024-01-07T07:50:10;100128.38;;;8.75;100.00
35806;BME280;21925;44.608;11.580;2024-01-07T07:52:36;100120.44;;;8.71;100.00
35806;BME280;21925;44.608;11.580;2024-01-07T07:55:04;100112.22;;;8.71;100.00
35806;BME280;21925;44.608;11.580;2024-01-07T07:57:32;100131.13;;;8.91;100.00
35806;BME280;21925;44.608;11.580;2024-01-07T07:59:59;100131.56;;;8.93;100.00
35806;BME280;21925;44.608;11.580;2024-01-07T08:02:24;100107.72;;;8.78;100.00
35806;BME280;21925;44.608;11.580;2024-01-07T08:04:50;100135.97;;;8.82;100.00
35806;BME280;21925;44.608;11.580;2024-01-07T08:07:16;100123.81;;;8.79;100.00
35806;BME280;21925;44.608;11.580;2024-01-07T08:09:41;100111.28;;;8.78;100.00
35806;BME280;21925;44.608;11.580;2024-01-07T08:12:10;100145.50;;;8.88;100.00
35806;BME280;21925;44.608;11.580;2024-01-07T08:14:37;100136.88;;;9.01;100.00
35806;BME280;21925;44.608;11.580;2024-01-07T08:17:07;100122.41;;;8.85;100.00
35806;BME280;21925;44.608;11.580;2024-01-07T08:19:32;100139.97;;;9.00;100.00
35806;BME280;21925;44.608;11.580;2024-01-07T08:21:58;100141.66;;;9.04;100.00
35806;BME280;21925;44.608;11.580;2024-01-07T08:24:24;100159.03;;;9.12;100.00
35806;BME280;21925;44.608;11.580;2024-01-07T08:26:50;100149.41;;;9.18;100.00
35806;BME280;21925;44.608;11.580;2024-01-07T08:29:17;100160.03;;;9.19;100.00
35806;BME280;21925;44.608;11.580;2024-01-07T08:31:43;100152.78;;;9.11;100.00
35806;BME280;21925;44.608;11.580;2024-01-07T08:34:08;100171.13;;;9.26;100.00
35806;BME280;21925;44.608;11.580;2024-01-07T08:36:34;100163.47;;;9.32;100.00
35806;BME280;21925;44.608;11.580;2024-01-07T08:39:00;100163.91;;;9.18;100.00
35806;BME280;21925;44.608;11.580;2024-01-07T08:41:27;100167.94;;;9.24;100.00
35806;BME280;21925;44.608;11.580;2024-01-07T08:43:57;100165.91;;;9.21;100.00
35806;BME280;21925;44.608;11.580;2024-01-07T08:46:28;100147.13;;;9.04;100.00
35806;BME280;21925;44.608;11.580;2024-01-07T08:48:54;100182.59;;;9.16;100.00
35806;BME280;21925;44.608;11.580;2024-01-07T08:51:20;100195.63;;;9.07;100.00
35806;BME280;21925;44.608;11.580;2024-01-07T08:53:49;100197.69;;;9.26;100.00
35806;BME280;21925;44.608;11.580;2024-01-07T08:56:16;100195.75;;;9.26;100.00
35806;BME280;21925;44.608;11.580;2024-01-07T08:58:42;100185.41;;;9.20;100.00
35806;BME280;21925;44.608;11.580;2024-01-07T09:01:07;100185.97;;;9.25;100.00
35806;BME280;21925;44.608;11.580;2024-01-07T09:03:34;100187.03;;;9.36;100.00
35806;BME280;21925;44.608;11.580;2024-01-07T09:06:00;100180.47;;;9.25;100.00
35806;BME280;21925;44.608;11.580;2024-01-07T09:08:26;100196.56;;;9.42;100.00
35806;BME280;21925;44.608;11.580;2024-01-07T09:10:52;100185.44;;;9.35;100.00
35806;BME280;21925;44.608;11.580;2024-01-07T09:13:18;100213.34;;;9.41;100.00
35806;BME280;21925;44.608;11.580;2024-01-07T09:15:45;100199.19;;;9.23;100.00
35806;BME280;21925;44.608;11.580;2024-01-07T09:18:11;100203.44;;;9.36;100.00
35806;BME280;21925;44.608;11.580;2024-01-07T09:20:39;100209.16;;;9.31;100.00
35806;BME280;21925;44.608;11.580;2024-01-07T09:23:08;100203.06;;;9.22;100.00
35806;BME280;21925;44.608;11.580;2024-01-07T09:25:35;100201.47;;;9.21;100.00
35806;BME280;21925;44.608;11.580;2024-01-07T09:28:03;100216.03;;;9.25;100.00
35806;BME280;21925;44.608;11.580;2024-01-07T09:30:32;100218.09;;;9.28;100.00
35806;BME280;21925;44.608;11.580;2024-01-07T09:33:01;100208.72;;;9.29;100.00
35806;BME280;21925;44.608;11.580;2024-01-07T09:35:30;100216.69;;;9.34;100.00
35806;BME280;21925;44.608;11.580;2024-01-07T09:37:56;100224.16;;;9.22;100.00
35806;BME280;21925;44.608;11.580;2024-01-07T09:40:25;100200.59;;;9.17;100.00
35806;BME280;21925;44.608;11.580;2024-01-07T09:42:51;100224.78;;;9.31;100.00
35806;BME280;21925;44.608;11.580;2024-01-07T09:45:18;100216.69;;;9.34;100.00
35806;BME280;21925;44.608;11.580;2024-01-07T09:47:44;100226.38;;;9.32;100.00
35806;BME280;21925;44.608;11.580;2024-01-07T09:50:11;100232.19;;;9.30;100.00
35806;BME280;21925;44.608;11.580;2024-01-07T09:52:43;100240.66;;;9.25;100.00
35806;BME280;21925;44.608;11.580;2024-01-07T09:55:09;100239.53;;;9.26;100.00
35806;BME280;21925;44.608;11.580;2024-01-07T09:57:40;100238.38;;;9.27;100.00
35806;BME280;21925;44.608;11.580;2024-01-07T10:00:09;100242.63;;;9.25;100.00
35806;BME280;21925;44.608;11.580;2024-01-07T10:02:41;100222.78;;;9.00;100.00
35806;BME280;21925;44.608;11.580;2024-01-07T10:05:07;100245.03;;;9.14;100.00
35806;BME280;21925;44.608;11.580;2024-01-07T10:07:33;100250.78;;;9.09;100.00
35806;BME280;21925;44.608;11.580;2024-01-07T10:10:13;100236.91;;;9.02;100.00
35806;BME280;21925;44.608;11.580;2024-01-07T10:12:39;100243.06;;;8.99;100.00
35806;BME280;21925;44.608;11.580;2024-01-07T10:15:05;100242.56;;;8.82;100.00
35806;BME280;21925;44.608;11.580;2024-01-07T10:17:31;100201.69;;;8.73;100.00
35806;BME280;21925;44.608;11.580;2024-01-07T10:19:57;100245.44;;;9.01;100.00
35806;BME280;21925;44.608;11.580;2024-01-07T10:22:24;100217.59;;;8.83;100.00
35806;BME280;21925;44.608;11.580;2024-01-07T10:24:51;100190.47;;;8.63;100.00
35806;BME280;21925;44.608;11.580;2024-01-07T10:27:17;100229.88;;;8.89;100.00
35806;BME280;21925;44.608;11.580;2024-01-07T10:29:43;100211.69;;;8.81;100.00
35806;BME280;21925;44.608;11.580;2024-01-07T10:32:11;100189.78;;;8.66;100.00
35806;BME280;21925;44.608;11.580;2024-01-07T10:34:39;100207.16;;;8.73;100.00
35806;BME280;21925;44.608;11.580;2024-01-07T10:37:05;100195.34;;;8.70;100.00
35806;BME280;21925;44.608;11.580;2024-01-07T10:39:31;100182.19;;;8.60;100.00
35806;BME280;21925;44.608;11.580;2024-01-07T10:41:57;100203.50;;;8.81;100.00
35806;BME280;21925;44.608;11.580;2024-01-07T10:44:27;100229.16;;;9.04;100.00
35806;BME280;21925;44.608;11.580;2024-01-07T10:46:57;100149.09;;;8.49;100.00
35806;BME280;21925;44.608;11.580;2024-01-07T10:49:27;100173.41;;;8.66;100.00
35806;BME280;21925;44.608;11.580;2024-01-07T10:52:10;100222.78;;;9.00;100.00
35806;BME280;21925;44.608;11.580;2024-01-07T10:54:39;100219.41;;;8.91;100.00
35806;BME280;21925;44.608;11.580;2024-01-07T11:00:03;100221.44;;;8.94;100.00
35806;BME280;21925;44.608;11.580;2024-01-07T11:02:45;100217.13;;;8.93;100.00
35806;BME280;21925;44.608;11.580;2024-01-07T11:05:37;100224.56;;;9.08;100.00
35806;BME280;21925;44.608;11.580;2024-01-07T11:08:13;100224.66;;;9.12;100.00
35806;BME280;21925;44.608;11.580;2024-01-07T11:10:57;100218.41;;;9.11;100.00
35806;BME280;21925;44.608;11.580;2024-01-07T11:13:37;100201.81;;;9.04;100.00
35806;BME280;21925;44.608;11.580;2024-01-07T11:19:20;100208.34;;;9.15;100.00
35806;BME280;21925;44.608;11.580;2024-01-07T11:21:47;100227.94;;;9.17;100.00
35806;BME280;21925;44.608;11.580;2024-01-07T11:24:38;100214.25;;;9.17;100.00
35806;BME280;21925;44.608;11.580;2024-01-07T11:27:04;100195.88;;;9.02;100.00
35806;BME280;21925;44.608;11.580;2024-01-07T11:29:31;100196.75;;;9.06;100.00
35806;BME280;21925;44.608;11.580;2024-01-07T11:31:57;100174.53;;;8.92;100.00
35806;BME280;21925;44.608;11.580;2024-01-07T11:34:39;100181.13;;;8.91;100.00
35806;BME280;21925;44.608;11.580;2024-01-07T11:37:10;100171.59;;;8.85;100.00
35806;BME280;21925;44.608;11.580;2024-01-07T11:39:36;100177.84;;;8.86;100.00
35806;BME280;21925;44.608;11.580;2024-01-07T11:42:05;100197.28;;;8.96;100.00
35806;BME280;21925;44.608;11.580;2024-01-07T11:44:34;100191.66;;;9.05;100.00
35806;BME280;21925;44.608;11.580;2024-01-07T11:47:00;100172.28;;;8.82;100.00
35806;BME280;21925;44.608;11.580;2024-01-07T11:49:27;100113.00;;;8.56;100.00
35806;BME280;21925;44.608;11.580;2024-01-07T11:51:56;100154.47;;;8.88;100.00
35806;BME280;21925;44.608;11.580;2024-01-07T11:54:21;100148.91;;;9.12;100.00
35806;BME280;21925;44.608;11.580;2024-01-07T11:56:48;100124.00;;;8.86;100.00
35806;BME280;21925;44.608;11.580;2024-01-07T11:59:16;100204.84;;;9.30;100.00
35806;BME280;21925;44.608;11.580;2024-01-07T12:01:42;100166.00;;;9.09;100.00
35806;BME280;21925;44.608;11.580;2024-01-07T12:04:11;100175.00;;;9.25;100.00
35806;BME280;21925;44.608;11.580;2024-01-07T12:06:38;100191.88;;;9.43;100.00
35806;BME280;21925;44.608;11.580;2024-01-07T12:09:04;100176.59;;;9.26;100.00
35806;BME280;21925;44.608;11.580;2024-01-07T12:11:35;100140.41;;;9.17;100.00
35806;BME280;21925;44.608;11.580;2024-01-07T12:14:02;100134.94;;;9.17;100.00
35806;BME280;21925;44.608;11.580;2024-01-07T12:16:29;100187.03;;;9.36;100.00
35806;BME280;21925;44.608;11.580;2024-01-07T12:18:56;100139.88;;;9.12;100.00
35806;BME280;21925;44.608;11.580;2024-01-07T12:21:22;100148.19;;;9.15;100.00
35806;BME280;21925;44.608;11.580;2024-01-07T12:23:50;100167.94;;;9.24;100.00
35806;BME280;21925;44.608;11.580;2024-01-07T12:26:19;100140.75;;;9.00;100.00
35806;BME280;21925;44.608;11.580;2024-01-07T12:28:53;100134.59;;;9.03;100.00
35806;BME280;21925;44.608;11.580;2024-01-07T12:31:26;100147.31;;;9.11;100.00
35806;BME280;21925;44.608;11.580;2024-01-07T12:33:52;100171.81;;;9.23;100.00
35806;BME280;21925;44.608;11.580;2024-01-07T12:36:29;100197.34;;;9.43;100.00
35806;BME280;21925;44.608;11.580;2024-01-07T12:38:58;100198.25;;;9.47;100.00
35806;BME280;21925;44.608;11.580;2024-01-07T12:41:24;100131.31;;;8.98;100.00
35806;BME280;21925;44.608;11.580;2024-01-07T12:43:50;100150.72;;;9.08;100.00
35806;BME280;21925;44.608;11.580;2024-01-07T12:46:16;100103.16;;;8.82;100.00
35806;BME280;21925;44.608;11.580;2024-01-07T12:48:43;100153.66;;;9.15;100.00
35806;BME280;21925;44.608;11.580;2024-01-07T12:51:09;100190.47;;;9.33;100.00